• Join FlightAware (Why Join?)
  • Login
  • US Flag 
02:06PM EST


 

Airport Tracker/Info


-or-


 

Live Flight TrackerFlight Track Log ✈ DAL1182 ✈ 10-Feb-2014 ✈ KSLC - KSTL

Flight Track Log - Related Links

Times and Time Zones

All times are in EST time to prevent confusion due to time zone crossing. See the DAL1182 flight status page for this flight to view local times or setup timezone preferences in your user account.

Time Position Orientation Groundspeed Altitude Reporting Facility
EST Latitude Longitude Course Direction KTS MPH feet Rate Location/Type
10:21PM 40.8153 -111.9792 91° East 170 196 5,400  Level Salt Lake Center
10:22PM 40.8703 -111.9861 355° North 209 241 6,900 2,200 Climbing Salt Lake Center
10:23PM 40.9333 -111.9936 355° North 245 282 9,800 3,246 Climbing Salt Lake Center
10:23PM 40.9386 -111.9939 358° North 255 293 10,200 2,775 Climbing Salt Lake Center
10:24PM 40.7866 -111.2593 90° East  Level Estimated
10:24PM 41.0158 -111.9478 24° Northeast 289 333 13,500  Level Salt Lake Center
10:25PM 40.7854 -111.0797 90° East  Level Estimated
10:25PM 41.0144 -111.8806 92° East 315 362 14,300  Level Salt Lake Center
10:26PM 40.7840 -110.9001 91° East  Level Estimated
10:26PM 40.9806 -111.7347 107° East 369 425 16,300  Level Salt Lake Center
10:27PM 40.9517 -111.5967 105° East 391 450 18,100 1,805 Climbing Salt Lake Center
10:28PM 40.9208 -111.4517 106° East 410 472 20,000 1,805 Climbing Salt Lake Center
10:29PM 40.8978 -111.2969 101° East 430 495 21,800 1,694 Climbing Salt Lake Center
10:30PM 40.8781 -111.1372 99° East 440 506 23,500 1,512 Climbing Salt Lake Center
10:31PM 40.8583 -110.9725 99° East 452 520 24,900 1,366 Climbing Salt Lake Center
10:32PM 40.8342 -110.7683 99° East 469 540 26,300 1,210 Climbing Salt Lake Center
10:33PM 40.8111 -110.5869 99° East 485 558 27,400 1,122 Climbing Salt Lake Center
10:34PM 40.7897 -110.4147 99° East 495 570 28,600 1,220 Climbing Salt Lake Center
10:35PM 40.7664 -110.2339 100° East 497 572 29,900 1,306 Climbing Salt Lake Center
10:36PM 40.7411 -110.0308 99° East 501 577 31,300 1,317 Climbing Salt Lake Center
10:37PM 40.7297 -109.8561 95° East 499 574 32,600 1,122 Climbing Salt Lake Center
10:38PM 40.7172 -109.6836 95° East 495 570 33,600 919 Climbing Salt Lake Center
10:39PM 40.7017 -109.4783 96° East 500 575 34,500 829 Climbing Salt Lake Center
10:40PM 40.6883 -109.3039 96° East 502 578 35,300 878 Climbing Salt Lake Center
10:41PM 40.6747 -109.1153 95° East 503 579 36,300 713 Climbing Salt Lake Center
10:42PM 40.6633 -108.9800 96° East 501 577 36,500 420 Climbing Denver Center
10:43PM 40.6497 -108.8022 96° East 504 580 37,000 244 Climbing Denver Center
10:44PM 40.6358 -108.6253 96° East 506 582 37,000  Level Denver Center
10:45PM 40.6192 -108.4208 96° East 503 579 37,000  Level Denver Center
10:46PM 40.6036 -108.2422 96° East 509 586 37,000  Level Denver Center
10:47PM 40.5831 -108.0053 96° East 510 587 37,000  Level Denver Center
10:48PM 40.5675 -107.8281 97° East 510 587 37,000  Level Denver Center
10:49PM 40.5489 -107.6183 97° East 514 592 37,000  Level Denver Center
10:50PM 40.5325 -107.4392 97° East 515 593 37,000  Level Denver Center
10:51PM 40.5150 -107.2611 97° East 514 592 37,000  Level Denver Center
10:52PM 40.4761 -107.0558 104° East 514 592 37,000  Level Denver Center
10:53PM 40.4467 -106.8817 102° East 512 589 37,000  Level Denver Center
10:54PM 40.4144 -106.7044 103° East 513 590 37,000  Level Denver Center
10:55PM 40.3817 -106.5236 103° East 510 587 37,000  Level Denver Center
10:56PM 40.3461 -106.3331 104° East 510 587 37,000  Level Denver Center
10:57PM 40.3128 -106.1511 103° East 514 592 37,000  Level Denver Center
10:58PM 40.2803 -105.9731 103° East 506 582 37,000  Level Denver Center
10:59PM 40.2411 -105.7681 104° East 488 562 37,000  Level Denver Center
11:00PM 40.2081 -105.5950 104° East 490 564 37,000 49 Level Denver Center
11:01PM 40.1747 -105.4189 104° East 498 573 37,100 49 Climbing Denver Center
11:02PM 40.1400 -105.2464 105° East 494 568 37,100 -49 Level Denver Center
11:03PM 40.1069 -105.0736 104° East 490 564 37,000 -49 Descending Denver Center
11:05PM 40.0725 -104.9022 105° East 488 562 37,000  Level Denver Center
11:06PM 40.0392 -104.7308 104° East 485 558 37,000  Level Denver Center
11:07PM 40.0042 -104.5597 105° East 485 558 37,000  Level Denver Center
11:08PM 39.9689 -104.3858 105° East 491 565 37,000  Level Denver Center
11:09PM 39.9333 -104.2122 105° East 492 566 37,000  Level Denver Center
11:10PM 39.8978 -104.0389 105° East 494 568 37,000  Level Denver Center
11:11PM 39.8622 -103.8656 105° East 496 571 37,000  Level Denver Center
11:12PM 39.8189 -103.6567 105° East 497 572 37,000  Level Denver Center
11:13PM 39.7819 -103.4850 106° East 494 568 37,000  Level Denver Center
11:14PM 39.7453 -103.3114 105° East 498 573 37,000  Level Denver Center
11:15PM 39.7092 -103.1389 105° East 496 571 37,000  Level Denver Center
11:16PM 39.6711 -102.9664 106° East 498 573 37,000  Level Denver Center
11:17PM 39.6342 -102.7931 105° East 498 573 37,000  Level Denver Center
11:18PM 39.5961 -102.6167 106° East 508 585 37,000  Level Denver Center
11:19PM 39.5567 -102.4428 106° East 505 581 37,000  Level Denver Center
11:20PM 39.5128 -102.2453 106° East 506 582 37,000  Level Denver Center
11:21PM 39.4753 -102.0781 106° East 506 582 37,000  Level Denver Center
11:22PM 39.4306 -101.8806 106° East 511 588 37,000  Level Denver Center
11:23PM 39.3936 -101.7125 106° East 509 586 37,000  Level Denver Center
11:24PM 39.3753 -101.5381 98° East 514 592 37,000  Level Denver Center
11:25PM 39.3583 -101.3333 96° East 515 593 37,000  Level Denver Center
11:26PM 39.3433 -101.1583 96° East 513 590 37,000  Level Denver Center
11:27PM 39.3253 -100.9531 96° East 516 594 37,000  Level Denver Center
11:28PM 39.3100 -100.7769 96° East 517 595 37,000  Level Denver Center
11:29PM 39.2939 -100.6011 97° East 516 594 37,000  Level Denver Center
11:30PM 39.2750 -100.3981 97° East 513 590 37,000  Level Denver Center
11:31PM 39.2581 -100.2211 97° East 518 596 37,000  Level Denver Center
11:32PM 39.2339 -100.0172 99° East 517 595 37,000  Level Denver Center
11:33PM 39.2144 -99.8464 98° East 521 600 37,000  Level Denver Center
11:34PM 39.1892 -99.6411 99° East 519 597 37,000  Level Denver Center
11:35PM 39.1669 -99.4639 99° East 521 600 37,000  Level Denver Center
11:36PM 39.1453 -99.2881 99° East 520 598 37,000  Level Denver Center
11:37PM 39.1200 -99.0819 99° East 521 600 37,000  Level Denver Center
11:38PM 39.1086 -98.9683 97° East 524 603 37,000  Level Kansas City Center
11:39PM 39.1047 -98.7822 91° East 522 601 37,000  Level Kansas City Center
11:40PM 39.0994 -98.5933 92° East 526 605 37,000  Level Kansas City Center
11:41PM 39.0936 -98.4058 92° East 525 604 37,000  Level Kansas City Center
11:42PM 39.0878 -98.2189 92° East 524 603 37,000  Level Kansas City Center
11:43PM 39.0819 -98.0300 92° East 526 605 37,000  Level Kansas City Center
11:44PM 39.0733 -97.8094 93° East 526 605 37,000  Level Kansas City Center
11:45PM 39.0669 -97.6297 93° East 524 603 37,000  Level Kansas City Center
11:46PM 39.0597 -97.4503 93° East 525 604 37,000  Level Kansas City Center
11:47PM 39.0511 -97.2375 93° East 527 606 37,000  Level Kansas City Center
11:48PM 39.0442 -97.0625 93° East 522 601 37,000  Level Kansas City Center
11:49PM 39.0372 -96.8833 93° East 522 601 37,000  Level Kansas City Center
11:50PM 39.0281 -96.6744 93° East 524 603 37,000  Level Kansas City Center
11:51PM 39.0208 -96.4961 93° East 523 602 37,000 -50 Level Kansas City Center
11:52PM 39.0089 -96.3144 95° East 528 608 36,900 -595 Descending Kansas City Center
11:53PM 38.9981 -96.1067 94° East 526 605 35,800 -942 Descending Kansas City Center
11:54PM 38.9897 -95.9264 93° East 528 608 35,000 -397 Descending Kansas City Center
11:55PM 38.9803 -95.7458 94° East 528 608 35,000  Level Kansas City Center
11:56PM 38.9692 -95.5353 94° East 531 611 35,000  Level Kansas City Center
11:57PM 38.9578 -95.3558 95° East 532 612 35,000  Level Kansas City Center
11:58PM 38.9511 -95.1783 93° East 528 608 35,000  Level Kansas City Center
11:59PM 38.9450 -94.9719 92° East 525 604 35,000  Level Kansas City Center
12:00AM 38.9372 -94.7942 93° East 525 604 35,000  Level Kansas City Center
12:01AM 38.9292 -94.5853 93° East 526 605 35,000  Level Kansas City Center
12:02AM 38.9208 -94.4058 93° East 527 606 35,000  Level Kansas City Center
12:03AM 38.9125 -94.2269 93° East 526 605 35,000  Level Kansas City Center
12:04AM 38.9025 -94.0189 93° East 524 603 35,000  Level Kansas City Center
12:05AM 38.8933 -93.8406 94° East 524 603 35,000  Level Kansas City Center
12:06AM 38.8850 -93.6497 93° East 528 608 35,000  Level Kansas City Center
12:07AM 38.8758 -93.4619 94° East 528 608 35,000  Level Kansas City Center
12:08AM 38.8656 -93.2728 94° East 526 605 35,000  Level Kansas City Center
12:09AM 38.8542 -93.0842 94° East 527 606 35,000  Level Kansas City Center
12:10AM 38.8433 -92.8956 94° East 527 606 35,000 -347 Level Kansas City Center
12:11AM 38.8322 -92.7056 94° East 528 608 34,300 -1,289 Descending Kansas City Center
12:12AM 38.8208 -92.5161 94° East 529 609 32,400 -2,430 Descending Kansas City Center
12:13AM 38.8086 -92.3261 95° East 529 609 29,400 -2,975 Descending Kansas City Center
12:14AM 38.7969 -92.1397 95° East 524 603 26,400 -2,777 Descending Kansas City Center
12:15AM 38.7856 -91.9622 95° East 505 581 23,800 -2,529 Descending Kansas City Center
12:16AM 38.7731 -91.7925 95° East 484 557 21,300 -2,281 Descending Kansas City Center
12:17AM 38.7636 -91.6553 95° East 467 537 19,200 -2,083 Descending Kansas City Center
12:18AM 38.7533 -91.5011 95° East 445 512 17,100 -2,281 Descending Kansas City Center
12:19AM 38.7419 -91.3536 96° East 424 488 14,600 -2,727 Descending Kansas City Center
12:20AM 38.7197 -91.1869 100° East 400 460 11,600 -1,785 Descending Kansas City Center
12:21AM 38.6969 -91.0581 103° East 385 443 11,000 -298 Descending Kansas City Center
12:22AM 38.6783 -90.9392 101° East 363 418 11,000 -298 Level Kansas City Center
12:23AM 38.6769 -90.8194 91° East 347 399 10,400 -992 Descending Kansas City Center
12:24AM 38.6731 -90.7086 93° East 330 380 9,000 -1,388 Descending Kansas City Center
12:25AM 38.6694 -90.6072 93° East 305 351 7,600 -1,388 Descending Kansas City Center
12:26AM 38.6658 -90.5114 93° East 281 323 6,200 -1,686 Descending Kansas City Center
12:27AM 38.6622 -90.4206 93° East 268 308 4,200 -1,587 Descending Kansas City Center
12:28AM 38.6442 -90.3414 106° East 254 292 3,000 -595 Descending Kansas City Center
12:29AM 38.6389 -90.2803 96° East 210 242 3,000 -298 Level Kansas City Center
12:30AM 38.6817 -90.2653 15° North 179 206 2,400 -694 Descending Kansas City Center
12:31AM 38.7150 -90.3000 321° Northwest 156 180 1,600 -744 Descending Kansas City Center
12:32AM 38.7333 -90.3364 303° West 136 157 900 -496 Descending Kansas City Center
12:33AM 38.7825 -90.3542 344° North 156 180 600 -295 Descending Kansas City Center